Time;durP1;ratioP1;P1;durP2;ratioP2;P2;SDS_P1;SDS_P2;PMS_P1;PMS_P2;Temp;Humidity;BMP_temperature;BMP_pressure;BME280_temperature;BME280_humidity;BME280_pressure;Samples;Min_cycle;Max_cycle;Signal;HPM_P1;HPM_P2
2022/07/28 00:00:25;;;;;;;7.22;2.70;;;17.90;69.40;;;;;;5013883;28;20109;-65
2022/07/28 00:02:51;;;;;;;6.57;2.83;;;17.80;69.70;;;;;;5010174;28;20397;-65
2022/07/28 00:05:16;;;;;;;5.70;2.58;;;17.70;69.70;;;;;;5014050;28;20064;-65
2022/07/28 00:07:42;;;;;;;9.23;2.65;;;17.70;69.90;;;;;;5013400;28;20481;-65
2022/07/28 00:10:08;;;;;;;6.25;2.20;;;17.70;69.80;;;;;;5012480;28;20422;-65
2022/07/28 00:12:35;;;;;;;7.00;2.47;;;17.60;70.10;;;;;;5011671;28;20113;-65
2022/07/28 00:15:01;;;;;;;4.55;2.20;;;17.60;70.40;;;;;;5012301;28;20053;-65
2022/07/28 00:17:27;;;;;;;5.30;2.30;;;17.70;70.60;;;;;;5011157;28;20418;-64
2022/07/28 00:19:52;;;;;;;6.45;2.22;;;17.70;70.70;;;;;;5013522;28;20088;-65
2022/07/28 00:22:19;;;;;;;5.88;2.50;;;17.60;70.60;;;;;;5011669;28;20032;-65
2022/07/28 00:24:45;;;;;;;6.22;2.25;;;17.60;70.80;;;;;;4997260;28;20025;-65
2022/07/28 00:27:10;;;;;;;4.45;2.35;;;17.70;71.00;;;;;;5013024;28;20110;-64
2022/07/28 00:29:36;;;;;;;4.78;2.25;;;17.60;71.20;;;;;;5011832;28;20061;-65
2022/07/28 00:32:02;;;;;;;4.28;2.40;;;17.60;71.10;;;;;;5013041;28;20512;-65
2022/07/28 00:34:27;;;;;;;7.70;2.60;;;17.60;71.80;;;;;;5012595;28;20026;-64
2022/07/28 00:36:53;;;;;;;5.20;2.42;;;17.60;71.70;;;;;;5012603;28;20512;-64
2022/07/28 00:39:18;;;;;;;4.05;2.00;;;17.60;71.80;;;;;;5012255;28;20452;-65
2022/07/28 00:41:44;;;;;;;4.70;1.90;;;17.60;71.70;;;;;;5012343;28;20025;-65
2022/07/28 00:44:10;;;;;;;3.13;1.90;;;17.60;71.60;;;;;;5011835;28;20022;-65
2022/07/28 00:46:35;;;;;;;4.82;1.95;;;17.50;71.40;;;;;;4998561;28;20060;-65
2022/07/28 00:49:01;;;;;;;4.95;1.80;;;17.40;71.60;;;;;;5011991;28;20529;-65
2022/07/28 00:51:27;;;;;;;4.65;2.63;;;17.40;71.70;;;;;;5011819;28;20058;-65
2022/07/28 00:53:55;;;;;;;4.97;2.22;;;17.40;71.70;;;;;;5011483;28;20492;-65
2022/07/28 00:56:22;;;;;;;5.53;2.20;;;17.40;71.90;;;;;;4996791;28;20568;-65
2022/07/28 00:58:48;;;;;;;4.20;1.88;;;17.30;71.90;;;;;;5010205;28;20493;-65
2022/07/28 01:01:18;;;;;;;4.80;1.77;;;17.30;72.00;;;;;;5008030;28;20095;-66
2022/07/28 01:03:53;;;;;;;5.40;1.52;;;17.30;72.20;;;;;;5013000;28;20018;-66
2022/07/28 01:06:37;;;;;;;3.50;1.90;;;17.30;72.40;;;;;;5012059;28;20087;-66
2022/07/28 01:09:40;;;;;;;4.80;1.77;;;17.20;72.60;;;;;;5009034;28;20038;-66
2022/07/28 01:12:31;;;;;;;5.25;2.15;;;17.20;72.70;;;;;;5012514;28;20040;-66
2022/07/28 01:15:07;;;;;;;4.15;2.40;;;17.10;72.90;;;;;;5010508;28;20044;-65
2022/07/28 01:17:37;;;;;;;5.70;2.03;;;17.10;73.50;;;;;;5012325;28;20032;-66
2022/07/28 01:20:26;;;;;;;3.50;1.48;;;17.00;73.50;;;;;;5010968;28;20026;-65
2022/07/28 01:23:11;;;;;;;4.32;2.00;;;16.90;73.80;;;;;;5009953;28;20030;-64
2022/07/28 01:25:52;;;;;;;5.43;1.80;;;16.90;73.90;;;;;;5011386;28;20025;-66
2022/07/28 01:29:04;;;;;;;3.50;1.73;;;16.90;74.20;;;;;;5011275;28;20068;-65
2022/07/28 01:31:47;;;;;;;5.20;2.20;;;16.90;74.30;;;;;;5009444;28;20382;-66
2022/07/28 01:34:17;;;;;;;5.00;1.48;;;16.80;74.70;;;;;;5013586;28;20448;-65
2022/07/28 01:36:49;;;;;;;2.95;1.70;;;16.80;75.00;;;;;;5014799;28;20081;-65
2022/07/28 01:39:17;;;;;;;5.85;1.98;;;16.80;75.30;;;;;;5013152;28;20109;-65
2022/07/28 01:41:44;;;;;;;6.30;2.28;;;16.70;75.90;;;;;;5011471;28;20587;-66
2022/07/28 01:44:14;;;;;;;4.85;2.00;;;16.70;75.70;;;;;;5012690;28;20570;-65
2022/07/28 01:46:42;;;;;;;3.58;1.90;;;16.70;75.90;;;;;;5009838;28;20032;-66
2022/07/28 01:49:17;;;;;;;4.78;1.90;;;16.70;76.20;;;;;;5012350;28;20641;-66
2022/07/28 01:51:43;;;;;;;5.95;1.90;;;16.70;76.40;;;;;;5005923;28;20030;-65
2022/07/28 01:54:11;;;;;;;3.33;1.98;;;16.60;76.30;;;;;;5008186;28;20104;-66
2022/07/28 01:56:38;;;;;;;4.25;1.70;;;16.60;76.80;;;;;;5002907;28;20461;-65
2022/07/28 01:59:06;;;;;;;8.80;2.22;;;16.60;77.30;;;;;;5012168;28;20028;-65
2022/07/28 02:01:35;;;;;;;4.45;2.08;;;16.60;77.10;;;;;;5010215;28;20052;-65
2022/07/28 02:04:03;;;;;;;3.60;2.00;;;16.60;77.50;;;;;;5011736;28;20025;-66
2022/07/28 02:06:30;;;;;;;5.38;1.83;;;16.60;77.50;;;;;;5011485;28;20050;-65
2022/07/28 02:08:58;;;;;;;5.82;2.45;;;16.60;77.90;;;;;;5010641;28;20560;-65
2022/07/28 02:11:40;;;;;;;7.40;2.45;;;16.50;77.90;;;;;;5010871;28;20072;-65
2022/07/28 02:14:14;;;;;;;4.97;1.88;;;16.60;78.20;;;;;;5011501;28;20248;-65
2022/07/28 02:16:45;;;;;;;6.53;2.00;;;16.60;78.50;;;;;;5010147;28;20036;-65
2022/07/28 02:19:14;;;;;;;4.43;1.83;;;16.60;78.70;;;;;;5012887;28;20045;-65
2022/07/28 02:21:42;;;;;;;5.93;2.45;;;16.60;78.80;;;;;;5016755;28;20454;-65
2022/07/28 02:24:09;;;;;;;7.20;2.00;;;16.60;79.20;;;;;;5010653;28;20026;-66
2022/07/28 02:26:40;;;;;;;5.75;2.25;;;16.60;79.30;;;;;;5010475;28;20037;-66
2022/07/28 02:29:09;;;;;;;5.22;1.85;;;16.60;79.30;;;;;;5011765;28;20053;-66
2022/07/28 02:31:45;;;;;;;6.38;1.73;;;16.60;79.30;;;;;;5010420;28;20021;-66
2022/07/28 02:34:13;;;;;;;5.03;2.05;;;16.60;79.70;;;;;;5011086;28;20436;-66
2022/07/28 02:36:45;;;;;;;5.97;1.88;;;16.50;79.70;;;;;;4999063;28;20035;-65
2022/07/28 02:39:17;;;;;;;4.68;2.17;;;16.50;79.80;;;;;;5005664;28;20175;-65
2022/07/28 02:41:43;;;;;;;9.43;2.00;;;16.50;80.20;;;;;;5011456;28;20436;-65
2022/07/28 02:44:16;;;;;;;6.88;2.05;;;16.50;80.30;;;;;;5011642;28;20087;-65
2022/07/28 02:46:45;;;;;;;7.45;2.08;;;16.50;80.50;;;;;;5011236;28;20057;-66
2022/07/28 02:49:28;;;;;;;4.63;1.90;;;16.50;80.40;;;;;;5010435;28;20370;-65
2022/07/28 02:51:56;;;;;;;7.38;2.10;;;16.50;80.50;;;;;;5002562;28;20135;-65
2022/07/28 02:54:26;;;;;;;4.68;2.60;;;16.40;80.60;;;;;;4992498;28;20391;-64
2022/07/28 02:56:52;;;;;;;5.65;2.22;;;16.50;80.70;;;;;;5004084;28;20036;-65
2022/07/28 02:59:19;;;;;;;4.88;1.80;;;16.40;80.50;;;;;;5011249;28;20037;-65
2022/07/28 03:01:49;;;;;;;4.97;2.10;;;16.40;80.70;;;;;;5011105;28;20434;-65
2022/07/28 03:04:15;;;;;;;4.35;2.05;;;16.40;81.00;;;;;;5011017;28;20034;-65
2022/07/28 03:06:41;;;;;;;9.02;3.05;;;16.30;80.90;;;;;;5010813;28;20033;-65
2022/07/28 03:09:08;;;;;;;5.70;2.30;;;16.30;80.90;;;;;;5008674;28;20442;-65
2022/07/28 03:11:33;;;;;;;11.07;2.67;;;16.30;81.20;;;;;;5010460;28;20045;-64
2022/07/28 03:13:59;;;;;;;5.03;2.05;;;16.30;81.30;;;;;;5011657;28;20061;-65
2022/07/28 03:16:25;;;;;;;6.03;1.92;;;16.30;81.50;;;;;;5010288;28;20021;-64
2022/07/28 03:18:51;;;;;;;7.38;2.60;;;16.30;81.50;;;;;;5011157;28;20037;-65
2022/07/28 03:21:17;;;;;;;4.07;1.90;;;16.30;81.90;;;;;;5009305;28;20042;-64
2022/07/28 03:23:46;;;;;;;8.48;2.05;;;16.30;82.00;;;;;;5011238;28;20050;-65
2022/07/28 03:26:22;;;;;;;5.35;2.33;;;16.30;82.20;;;;;;5010336;28;20058;-64
2022/07/28 03:28:51;;;;;;;6.45;2.55;;;16.30;82.50;;;;;;5011226;28;20501;-65
2022/07/28 03:31:18;;;;;;;6.35;2.63;;;16.30;82.20;;;;;;5010614;28;20042;-65
2022/07/28 03:33:45;;;;;;;5.80;1.90;;;16.30;82.60;;;;;;5013113;28;20045;-64
2022/07/28 03:36:17;;;;;;;4.85;2.10;;;16.30;82.70;;;;;;5013845;28;20105;-65
2022/07/28 03:39:07;;;;;;;6.95;2.45;;;16.30;82.90;;;;;;5014630;28;20038;-65
2022/07/28 03:41:34;;;;;;;16.27;2.80;;;16.20;83.10;;;;;;5013583;28;20026;-65
2022/07/28 03:44:01;;;;;;;4.75;2.35;;;16.20;83.10;;;;;;5012993;28;20473;-65
2022/07/28 03:46:27;;;;;;;3.75;2.15;;;16.20;83.20;;;;;;5016530;28;20041;-65
2022/07/28 03:48:53;;;;;;;5.65;1.90;;;16.30;83.50;;;;;;5009954;28;20045;-65
2022/07/28 03:51:19;;;;;;;7.22;2.80;;;16.30;83.60;;;;;;5013379;28;20393;-65
2022/07/28 03:53:45;;;;;;;6.93;2.47;;;16.30;83.60;;;;;;5013251;28;20388;-66
2022/07/28 03:56:11;;;;;;;6.13;2.25;;;16.30;83.80;;;;;;5013694;28;20496;-65
2022/07/28 03:58:37;;;;;;;4.03;2.17;;;16.30;83.90;;;;;;5013882;28;20161;-65
2022/07/28 04:01:03;;;;;;;6.15;2.53;;;16.30;84.10;;;;;;5013304;28;20087;-65
2022/07/28 04:03:29;;;;;;;5.32;2.10;;;16.30;84.50;;;;;;5013162;28;20026;-65
2022/07/28 04:05:55;;;;;;;5.28;2.20;;;16.30;84.70;;;;;;5008725;28;20540;-65
2022/07/28 04:08:21;;;;;;;4.45;2.30;;;16.30;85.00;;;;;;5009283;28;20132;-65
2022/07/28 04:10:48;;;;;;;6.72;2.40;;;16.30;85.20;;;;;;5011264;28;20122;-65
2022/07/28 04:13:14;;;;;;;5.72;2.50;;;16.30;85.80;;;;;;5013407;28;20072;-66
2022/07/28 04:15:39;;;;;;;6.22;2.30;;;16.30;85.80;;;;;;5011977;28;20449;-66
2022/07/28 04:18:06;;;;;;;6.13;2.70;;;16.30;85.70;;;;;;5012277;28;20064;-65
2022/07/28 04:20:32;;;;;;;6.10;2.20;;;16.40;85.70;;;;;;5013187;28;20096;-65
2022/07/28 04:22:58;;;;;;;4.38;2.22;;;16.40;85.80;;;;;;5013757;28;20092;-65
2022/07/28 04:25:26;;;;;;;7.40;2.38;;;16.40;86.00;;;;;;5013104;28;20433;-66
2022/07/28 04:27:53;;;;;;;8.60;3.03;;;16.50;86.80;;;;;;5013742;28;20022;-65
2022/07/28 04:30:23;;;;;;;6.80;2.35;;;16.50;86.20;;;;;;5013177;28;20064;-65
2022/07/28 04:32:50;;;;;;;5.68;2.28;;;16.60;86.30;;;;;;5012688;28;20389;-66
2022/07/28 04:35:18;;;;;;;5.82;2.38;;;16.60;86.20;;;;;;5002374;28;20040;-66
2022/07/28 04:37:44;;;;;;;7.78;2.80;;;16.60;86.10;;;;;;5013172;28;20040;-66
2022/07/28 04:40:12;;;;;;;6.18;2.35;;;16.60;85.70;;;;;;5012807;28;20038;-66
2022/07/28 04:42:38;;;;;;;6.38;2.47;;;16.70;86.20;;;;;;5012837;28;20418;-66
2022/07/28 04:45:05;;;;;;;6.18;2.58;;;16.70;86.00;;;;;;5012711;28;20113;-65
2022/07/28 04:47:30;;;;;;;9.35;3.38;;;16.70;85.60;;;;;;5013057;28;20029;-65
2022/07/28 04:49:56;;;;;;;8.60;2.30;;;16.70;85.20;;;;;;5012860;28;20034;-65
2022/07/28 04:52:24;;;;;;;7.43;2.70;;;16.80;85.20;;;;;;5012596;28;20056;-65
2022/07/28 04:54:50;;;;;;;6.90;2.90;;;16.80;85.30;;;;;;5013466;28;20029;-65
2022/07/28 04:57:15;;;;;;;6.43;2.63;;;16.80;85.00;;;;;;5011276;28;20029;-65
2022/07/28 04:59:41;;;;;;;8.18;2.55;;;16.80;85.30;;;;;;5013439;28;20029;-65
2022/07/28 05:02:07;;;;;;;5.32;2.45;;;16.90;85.20;;;;;;5011746;28;20021;-65
2022/07/28 05:04:33;;;;;;;6.28;3.33;;;16.90;85.20;;;;;;5013141;28;20050;-65
2022/07/28 05:06:59;;;;;;;6.43;2.30;;;16.90;85.20;;;;;;5012079;28;20137;-65
2022/07/28 05:09:25;;;;;;;5.45;2.55;;;17.00;85.50;;;;;;5012618;28;20042;-65
2022/07/28 05:11:50;;;;;;;7.10;2.70;;;17.00;85.30;;;;;;5011815;28;20367;-65
2022/07/28 05:14:16;;;;;;;4.80;2.30;;;17.00;85.20;;;;;;5011910;28;20030;-65
2022/07/28 05:16:42;;;;;;;5.63;2.25;;;17.10;85.50;;;;;;5012537;28;20041;-65
2022/07/28 05:19:08;;;;;;;8.80;2.55;;;17.10;84.50;;;;;;5012712;28;20026;-65
2022/07/28 05:21:34;;;;;;;5.72;2.03;;;17.10;84.20;;;;;;5011759;28;20474;-65
2022/07/28 05:23:59;;;;;;;6.82;2.20;;;17.10;84.50;;;;;;5011767;28;20099;-64
2022/07/28 05:26:27;;;;;;;4.43;2.33;;;17.20;84.80;;;;;;5012297;28;20072;-65
2022/07/28 05:28:53;;;;;;;6.90;2.58;;;17.20;84.20;;;;;;5012889;28;20120;-65
2022/07/28 05:31:18;;;;;;;4.53;2.00;;;17.30;84.10;;;;;;5011208;28;20120;-65
2022/07/28 05:33:45;;;;;;;5.07;2.03;;;17.30;84.00;;;;;;5012748;28;20033;-65
2022/07/28 05:36:11;;;;;;;6.45;2.55;;;17.30;84.10;;;;;;5011957;28;20152;-65
2022/07/28 05:38:37;;;;;;;4.35;1.85;;;17.30;84.40;;;;;;5011632;28;20124;-65
2022/07/28 05:41:03;;;;;;;4.85;2.13;;;17.40;84.30;;;;;;5011921;28;20054;-64
2022/07/28 05:43:28;;;;;;;4.03;2.03;;;17.40;84.10;;;;;;5012209;28;20469;-65
2022/07/28 05:45:54;;;;;;;5.38;1.80;;;17.50;83.90;;;;;;5012018;28;20126;-65
2022/07/28 05:48:20;;;;;;;5.78;1.88;;;17.50;83.90;;;;;;5011889;28;20069;-65
2022/07/28 05:50:48;;;;;;;7.22;2.35;;;17.50;83.60;;;;;;5011682;28;20112;-65
2022/07/28 05:53:14;;;;;;;7.47;2.10;;;17.50;83.40;;;;;;5001775;28;20060;-65
2022/07/28 05:55:42;;;;;;;6.53;2.17;;;17.60;83.60;;;;;;5012046;28;20109;-65
2022/07/28 05:58:07;;;;;;;3.47;1.50;;;17.60;83.80;;;;;;5012022;28;20101;-65
2022/07/28 06:00:33;;;;;;;7.88;3.20;;;17.70;84.40;;;;;;5010879;28;20112;-65
2022/07/28 06:03:02;;;;;;;4.10;1.80;;;17.70;84.10;;;;;;5011629;28;20037;-66
2022/07/28 06:05:29;;;;;;;4.30;1.98;;;17.80;83.90;;;;;;4993431;28;20084;-66
2022/07/28 06:07:55;;;;;;;4.82;1.90;;;17.90;83.50;;;;;;5011787;28;20036;-66
2022/07/28 06:10:22;;;;;;;4.38;2.25;;;17.90;82.80;;;;;;5025566;28;20057;-66
2022/07/28 06:12:55;;;;;;;5.85;1.85;;;17.90;82.70;;;;;;5011857;28;20549;-65
2022/07/28 06:15:26;;;;;;;3.40;1.67;;;17.90;82.30;;;;;;5010448;28;20061;-64
2022/07/28 06:17:54;;;;;;;7.75;2.13;;;17.90;82.00;;;;;;5010425;28;20044;-64
2022/07/28 06:20:21;;;;;;;7.18;2.47;;;17.90;81.70;;;;;;5011571;28;20050;-64
2022/07/28 06:22:51;;;;;;;6.05;1.67;;;18.00;81.70;;;;;;5006540;28;20022;-64
2022/07/28 06:25:24;;;;;;;5.80;2.15;;;18.00;82.30;;;;;;5005893;28;20052;-69
2022/07/28 06:27:54;;;;;;;4.78;1.70;;;18.00;81.90;;;;;;5005551;28;20026;-70
2022/07/28 06:30:20;;;;;;;6.18;1.88;;;18.10;81.80;;;;;;5010829;28;20124;-69
2022/07/28 06:32:47;;;;;;;4.80;2.17;;;18.10;81.60;;;;;;5008794;28;20033;-68
2022/07/28 06:35:15;;;;;;;6.45;2.42;;;18.10;81.60;;;;;;5010677;28;20373;-67
2022/07/28 06:37:41;;;;;;;5.88;2.33;;;18.10;81.30;;;;;;5010464;28;20108;-66
2022/07/28 06:40:07;;;;;;;7.68;2.05;;;18.10;81.80;;;;;;5010127;28;20481;-66
2022/07/28 06:42:33;;;;;;;5.53;1.92;;;18.20;81.40;;;;;;5010718;28;20045;-65
2022/07/28 06:44:59;;;;;;;4.95;2.47;;;18.20;82.50;;;;;;5004593;28;20522;-66
2022/07/28 06:47:24;;;;;;;6.55;2.50;;;18.30;82.20;;;;;;5008446;28;20030;-66
2022/07/28 06:49:51;;;;;;;6.80;2.40;;;18.40;82.10;;;;;;5009343;28;20401;-65
2022/07/28 06:52:19;;;;;;;9.95;2.97;;;18.40;82.00;;;;;;5011194;28;20018;-66
2022/07/28 06:54:45;;;;;;;8.05;3.00;;;18.50;81.80;;;;;;4994494;28;20088;-66
2022/07/28 06:57:12;;;;;;;6.93;2.58;;;18.70;81.60;;;;;;5010594;28;20437;-66
2022/07/28 06:59:38;;;;;;;6.15;2.17;;;18.80;81.60;;;;;;5004527;28;20089;-68
2022/07/28 07:02:04;;;;;;;6.20;2.63;;;18.90;81.60;;;;;;5008396;28;20129;-66
2022/07/28 07:04:29;;;;;;;5.15;2.45;;;19.00;81.30;;;;;;5010876;28;20073;-65
2022/07/28 07:06:55;;;;;;;7.03;2.75;;;19.00;81.50;;;;;;5009619;28;20037;-66
2022/07/28 07:09:20;;;;;;;5.63;2.20;;;19.20;80.90;;;;;;5013568;28;20438;-66
2022/07/28 07:11:46;;;;;;;6.30;2.50;;;19.30;80.80;;;;;;5014586;28;20536;-66
2022/07/28 07:14:13;;;;;;;5.60;2.75;;;19.40;80.60;;;;;;5014735;28;20065;-66
2022/07/28 07:16:38;;;;;;;5.45;2.58;;;19.40;80.00;;;;;;5006296;28;20033;-66
2022/07/28 07:19:04;;;;;;;6.25;3.00;;;19.50;79.90;;;;;;5012745;28;20034;-66
2022/07/28 07:21:29;;;;;;;8.50;3.33;;;19.60;80.00;;;;;;5014416;28;20464;-66
2022/07/28 07:23:55;;;;;;;5.20;2.80;;;19.70;80.00;;;;;;5013797;28;20527;-66
2022/07/28 07:26:21;;;;;;;13.07;2.78;;;19.70;80.20;;;;;;5013953;28;20030;-66
2022/07/28 07:28:46;;;;;;;6.60;2.40;;;19.80;79.50;;;;;;5012844;28;20034;-66
2022/07/28 07:31:12;;;;;;;5.40;2.67;;;19.80;79.40;;;;;;5011334;28;20068;-66
2022/07/28 07:33:38;;;;;;;5.63;2.30;;;19.90;79.20;;;;;;5013385;28;20389;-68
2022/07/28 07:36:05;;;;;;;7.72;2.58;;;20.00;78.80;;;;;;5014066;28;20508;-68
2022/07/28 07:38:31;;;;;;;7.88;2.40;;;20.00;78.60;;;;;;5014519;28;20029;-68
2022/07/28 07:40:57;;;;;;;6.13;2.20;;;20.00;77.40;;;;;;5014138;28;20477;-68
2022/07/28 07:43:22;;;;;;;8.45;2.22;;;20.00;77.50;;;;;;5012057;28;20492;-69
2022/07/28 07:45:48;;;;;;;6.18;3.00;;;20.00;77.20;;;;;;5014416;28;20030;-68
2022/07/28 07:48:14;;;;;;;5.28;2.55;;;20.10;76.50;;;;;;5013948;28;20048;-68
2022/07/28 07:50:39;;;;;;;5.30;2.10;;;20.10;76.30;;;;;;5012292;28;20037;-67
2022/07/28 07:53:05;;;;;;;4.28;1.92;;;20.10;76.90;;;;;;5012682;28;20160;-67
2022/07/28 07:55:30;;;;;;;6.88;1.80;;;20.20;76.80;;;;;;5012532;28;20029;-68
2022/07/28 07:57:57;;;;;;;8.02;2.88;;;20.30;76.60;;;;;;5013080;28;20030;-67
2022/07/28 08:00:23;;;;;;;3.88;2.20;;;20.30;75.90;;;;;;5013297;28;20038;-68
2022/07/28 08:02:49;;;;;;;7.57;2.70;;;20.40;75.50;;;;;;5013914;28;20052;-67
2022/07/28 08:05:16;;;;;;;7.97;2.90;;;20.50;75.40;;;;;;5010399;28;20049;-70
2022/07/28 08:07:41;;;;;;;5.72;2.20;;;20.60;75.00;;;;;;5008528;28;20033;-70
2022/07/28 08:10:08;;;;;;;3.80;1.92;;;20.80;74.90;;;;;;5013641;28;20034;-69
2022/07/28 08:12:34;;;;;;;9.52;3.40;;;20.90;75.20;;;;;;5012816;28;20018;-69
2022/07/28 08:14:59;;;;;;;8.20;3.63;;;20.90;74.90;;;;;;5012616;28;20037;-69
2022/07/28 08:17:25;;;;;;;10.07;3.25;;;21.00;74.40;;;;;;5007446;28;20026;-69
2022/07/28 08:19:51;;;;;;;5.05;2.63;;;21.10;75.10;;;;;;5011245;28;20033;-70
2022/07/28 08:22:17;;;;;;;6.18;2.75;;;21.10;75.00;;;;;;5012679;28;20080;-70
2022/07/28 08:24:42;;;;;;;4.28;2.70;;;21.20;74.60;;;;;;5010736;28;20073;-70
2022/07/28 08:27:08;;;;;;;4.07;2.00;;;21.30;73.80;;;;;;5013106;28;20030;-69
2022/07/28 08:29:34;;;;;;;2.88;1.60;;;21.40;72.50;;;;;;5012180;28;20048;-68
2022/07/28 08:32:02;;;;;;;2.88;1.83;;;21.50;71.90;;;;;;5012254;28;20987;-68
2022/07/28 08:34:29;;;;;;;4.40;1.73;;;21.60;70.70;;;;;;5013502;28;20405;-68
2022/07/28 08:36:55;;;;;;;4.93;1.42;;;21.60;70.30;;;;;;5012474;28;20026;-68
2022/07/28 08:39:21;;;;;;;3.08;1.80;;;21.70;71.30;;;;;;5014268;28;20324;-68
2022/07/28 08:41:54;;;;;;;5.93;1.98;;;21.80;71.20;;;;;;5012349;28;20044;-68
2022/07/28 08:44:25;;;;;;;4.38;2.08;;;21.80;70.70;;;;;;5012924;28;20473;-68
2022/07/28 08:46:52;;;;;;;6.97;2.20;;;21.80;70.10;;;;;;5011784;28;20499;-69
2022/07/28 08:49:18;;;;;;;5.55;1.95;;;21.90;69.70;;;;;;5012962;28;20038;-69
2022/07/28 08:51:48;;;;;;;4.53;2.40;;;21.90;68.50;;;;;;5019173;28;20033;-69
2022/07/28 08:54:24;;;;;;;6.18;2.08;;;21.90;69.70;;;;;;5015977;28;20482;-69
2022/07/28 08:56:50;;;;;;;6.90;1.83;;;21.90;70.00;;;;;;5013226;28;20477;-69
2022/07/28 08:59:16;;;;;;;4.65;2.08;;;22.10;70.00;;;;;;5011830;28;20164;-69
2022/07/28 09:01:42;;;;;;;3.10;1.60;;;22.10;69.80;;;;;;5004426;28;20481;-69
2022/07/28 09:04:08;;;;;;;3.67;1.70;;;22.20;69.90;;;;;;5006785;28;20037;-69
2022/07/28 09:06:40;;;;;;;5.88;2.03;;;22.30;69.40;;;;;;5012629;28;20022;-69
2022/07/28 09:09:08;;;;;;;4.38;1.75;;;22.40;70.60;;;;;;5008604;28;20060;-68
2022/07/28 09:11:35;;;;;;;5.40;2.30;;;22.50;70.20;;;;;;5012128;28;20481;-69
2022/07/28 09:14:01;;;;;;;4.25;2.05;;;22.60;69.50;;;;;;5012197;28;20477;-69
2022/07/28 09:16:27;;;;;;;4.43;2.20;;;22.60;68.70;;;;;;5012432;28;20033;-68
2022/07/28 09:18:52;;;;;;;5.88;1.80;;;22.70;68.10;;;;;;5012375;28;20489;-69
2022/07/28 09:21:18;;;;;;;4.72;2.58;;;22.80;68.20;;;;;;5010787;28;20041;-69
2022/07/28 09:23:46;;;;;;;5.57;2.00;;;22.90;68.20;;;;;;5007783;28;20038;-68
2022/07/28 09:26:13;;;;;;;7.57;2.67;;;23.00;68.20;;;;;;5011223;28;20018;-68
2022/07/28 09:28:56;;;;;;;5.10;2.10;;;23.10;68.50;;;;;;5003905;28;20038;-69
2022/07/28 09:31:24;;;;;;;6.90;1.98;;;23.10;66.40;;;;;;5008611;28;20033;-69
2022/07/28 09:33:53;;;;;;;6.05;1.63;;;23.10;66.90;;;;;;5027178;28;20136;-68
2022/07/28 09:36:20;;;;;;;4.90;1.70;;;23.20;66.30;;;;;;5011370;28;20029;-69
2022/07/28 09:38:46;;;;;;;4.43;1.98;;;23.30;65.20;;;;;;5013278;28;20029;-69
2022/07/28 09:41:13;;;;;;;8.05;2.10;;;23.30;64.90;;;;;;5010933;28;20022;-69
2022/07/28 09:43:42;;;;;;;7.22;2.10;;;23.30;65.30;;;;;;5013027;28;20405;-70
2022/07/28 09:46:17;;;;;;;4.05;2.00;;;23.40;65.60;;;;;;5010980;28;20029;-69
2022/07/28 09:49:00;;;;;;;4.07;1.92;;;23.50;65.40;;;;;;5011872;28;20045;-69
2022/07/28 09:51:29;;;;;;;4.47;1.73;;;23.50;65.40;;;;;;5013395;28;20032;-69
2022/07/28 09:54:13;;;;;;;5.03;2.03;;;23.60;65.90;;;;;;5014680;28;20030;-69
2022/07/28 09:56:44;;;;;;;5.18;1.75;;;23.60;64.10;;;;;;5012598;28;20116;-70
2022/07/28 09:59:11;;;;;;;3.28;1.70;;;23.60;63.30;;;;;;5012785;28;20480;-69
2022/07/28 10:01:57;;;;;;;6.03;1.65;;;23.50;62.50;;;;;;5010312;28;20096;-70
2022/07/28 10:04:31;;;;;;;3.80;1.55;;;23.50;62.60;;;;;;5010270;28;20053;-69
2022/07/28 10:07:06;;;;;;;7.45;2.22;;;23.40;63.50;;;;;;5006971;28;20030;-69
2022/07/28 10:09:32;;;;;;;;;;;23.30;63.40;;;;;;5010854;28;20124;-64
2022/07/28 10:12:20;;;;;;;3.83;1.80;;;23.20;62.70;;;;;;5012019;28;19925;-67
2022/07/28 10:14:47;;;;;;;5.28;1.77;;;23.10;63.70;;;;;;5009584;28;20100;-65
2022/07/28 10:17:30;;;;;;;5.63;1.55;;;23.00;62.80;;;;;;5011487;28;20034;-65
2022/07/28 10:19:57;;;;;;;3.47;1.65;;;23.00;63.80;;;;;;4992739;28;20049;-65
2022/07/28 10:22:27;;;;;;;9.07;2.17;;;23.10;63.90;;;;;;5008807;28;20030;-65
2022/07/28 10:24:53;;;;;;;3.45;1.63;;;23.20;64.00;;;;;;5010525;28;20064;-65
2022/07/28 10:27:24;;;;;;;6.03;1.80;;;23.30;63.70;;;;;;5013113;28;20026;-65
2022/07/28 10:29:59;;;;;;;7.30;2.08;;;23.30;62.40;;;;;;5010962;28;20176;-65
2022/07/28 10:32:28;;;;;;;2.10;1.40;;;23.30;62.00;;;;;;5011893;28;20026;-65
2022/07/28 10:35:00;;;;;;;5.60;1.83;;;23.40;63.50;;;;;;5011750;28;20034;-65
2022/07/28 10:37:29;;;;;;;8.50;2.10;;;23.40;63.60;;;;;;5012582;28;20049;-65
2022/07/28 10:40:04;;;;;;;5.63;2.10;;;23.50;63.50;;;;;;5013295;28;20385;-65
2022/07/28 10:42:30;;;;;;;;;;;23.60;62.10;;;;;;5010289;28;20030;-65
2022/07/28 10:44:58;;;;;;;3.28;1.75;;;23.60;62.50;;;;;;5011577;28;19924;-65
2022/07/28 10:47:25;;;;;;;4.13;2.15;;;23.50;62.60;;;;;;5011300;28;20054;-65
2022/07/28 10:49:51;;;;;;;3.22;1.70;;;23.50;61.90;;;;;;5012126;28;20425;-65
2022/07/28 10:52:18;;;;;;;2.95;1.58;;;23.50;62.00;;;;;;5004553;28;22730;-65
2022/07/28 10:55:11;;;;;;;3.50;1.88;;;23.60;62.50;;;;;;5010918;28;20022;-65
2022/07/28 10:57:47;;;;;;;3.53;1.85;;;23.60;61.80;;;;;;5021890;28;20095;-65
2022/07/28 11:00:20;;;;;;;3.45;1.42;;;23.60;61.90;;;;;;5010208;28;20022;-65
2022/07/28 11:02:51;;;;;;;8.32;1.70;;;23.60;60.40;;;;;;5012357;28;20037;-65
2022/07/28 11:05:39;;;;;;;4.47;1.55;;;23.70;60.70;;;;;;5011048;28;20048;-65
2022/07/28 11:08:15;;;;;;;2.72;1.52;;;23.80;61.60;;;;;;5010225;28;20076;-65
2022/07/28 11:10:47;;;;;;;3.22;1.42;;;23.90;61.30;;;;;;4996242;28;20030;-65
2022/07/28 11:13:22;;;;;;;4.55;1.75;;;24.00;61.50;;;;;;5011714;28;20030;-65
2022/07/28 11:15:47;;;;;;;2.22;1.60;;;24.00;59.50;;;;;;5010850;28;20034;-65
2022/07/28 11:18:13;;;;;;;4.60;2.00;;;24.00;60.30;;;;;;5011503;28;20080;-66
2022/07/28 11:21:02;;;;;;;4.00;1.65;;;24.10;59.30;;;;;;5010618;28;20034;-66
2022/07/28 11:23:37;;;;;;;3.38;1.40;;;24.20;58.90;;;;;;5007781;28;20124;-65
2022/07/28 11:26:23;;;;;;;5.18;1.75;;;24.10;57.90;;;;;;5011591;28;20053;-65
2022/07/28 11:29:05;;;;;;;6.57;2.10;;;24.00;57.60;;;;;;5008199;28;20162;-65
2022/07/28 11:31:43;;;;;;;5.32;1.83;;;23.90;58.30;;;;;;5003445;28;20507;-65
2022/07/28 11:34:10;;;;;;;2.63;1.38;;;23.90;58.60;;;;;;5010369;28;20103;-65
2022/07/28 11:37:01;;;;;;;3.83;1.73;;;23.80;58.80;;;;;;5009214;28;20049;-65
2022/07/28 11:39:30;;;;;;;6.60;2.00;;;23.90;59.70;;;;;;5011407;28;20066;-66
2022/07/28 11:41:55;;;;;;;4.18;1.63;;;23.90;60.10;;;;;;5011681;28;20097;-66
2022/07/28 11:44:26;;;;;;;4.70;1.95;;;24.00;58.30;;;;;;5011700;28;20481;-67
2022/07/28 11:46:52;;;;;;;3.97;1.65;;;24.00;58.30;;;;;;5006448;28;20044;-66
2022/07/28 11:49:20;;;;;;;6.22;2.03;;;24.00;56.70;;;;;;5010060;28;20041;-66
2022/07/28 11:52:08;;;;;;;3.70;1.90;;;23.90;56.70;;;;;;5011225;28;20073;-66
2022/07/28 11:54:35;;;;;;;4.85;2.50;;;23.80;57.50;;;;;;5008525;28;20040;-66
2022/07/28 11:57:02;;;;;;;5.38;1.90;;;23.80;58.10;;;;;;5012599;28;20030;-66
2022/07/28 11:59:42;;;;;;;4.40;1.70;;;23.80;57.60;;;;;;4994079;28;20039;-66
2022/07/28 12:02:08;;;;;;;6.70;2.40;;;23.80;58.30;;;;;;5008377;28;20030;-66
2022/07/28 12:04:34;;;;;;;6.00;2.05;;;23.90;57.80;;;;;;5009085;28;20426;-66
2022/07/28 12:07:00;;;;;;;3.60;1.73;;;23.90;57.70;;;;;;5009438;28;20029;-65
2022/07/28 12:09:32;;;;;;;4.47;1.55;;;24.00;58.60;;;;;;5012799;28;20053;-66
2022/07/28 12:11:58;;;;;;;3.40;1.83;;;24.10;59.00;;;;;;5013887;28;20033;-65
2022/07/28 12:14:28;;;;;;;5.97;1.80;;;24.20;58.70;;;;;;5014722;28;20030;-66
2022/07/28 12:16:55;;;;;;;5.05;2.20;;;24.20;58.10;;;;;;5011310;28;20065;-66
2022/07/28 12:19:21;;;;;;;5.20;2.33;;;24.10;58.10;;;;;;5014150;28;20075;-66
2022/07/28 12:21:48;;;;;;;5.20;1.85;;;24.10;58.00;;;;;;5008258;28;20104;-65
2022/07/28 12:24:16;;;;;;;3.75;1.63;;;24.10;58.00;;;;;;5007497;28;20029;-65
2022/07/28 12:26:42;;;;;;;2.95;1.60;;;24.10;58.40;;;;;;5013629;28;20022;-66
2022/07/28 12:29:13;;;;;;;6.00;2.10;;;24.10;58.10;;;;;;5012325;28;20057;-66
2022/07/28 12:31:54;;;;;;;5.05;1.88;;;24.10;58.20;;;;;;5013637;28;20029;-66
2022/07/28 12:34:22;;;;;;;3.42;1.80;;;24.10;56.70;;;;;;5012257;28;20033;-66
2022/07/28 12:36:48;;;;;;;3.58;1.23;;;24.10;57.00;;;;;;5013623;28;20029;-67
2022/07/28 12:39:21;;;;;;;3.35;1.58;;;24.10;57.20;;;;;;5013418;28;20022;-66
2022/07/28 12:41:47;;;;;;;4.70;2.77;;;24.30;57.20;;;;;;5014111;28;20033;-66
2022/07/28 12:44:13;;;;;;;3.40;2.00;;;24.20;56.60;;;;;;5013004;28;20760;-67
2022/07/28 12:46:47;;;;;;;3.25;1.65;;;24.30;55.90;;;;;;5013184;28;20065;-66
2022/07/28 12:49:20;;;;;;;5.90;2.00;;;24.30;56.20;;;;;;5009146;28;20048;-67
2022/07/28 12:51:46;;;;;;;6.53;1.90;;;24.30;55.80;;;;;;5014668;28;20030;-66
2022/07/28 12:54:13;;;;;;;4.00;1.90;;;24.50;56.40;;;;;;5011594;28;20898;-66
2022/07/28 12:56:49;;;;;;;5.32;1.80;;;24.50;56.00;;;;;;5000631;28;20027;-66